KCVG

Cincinnati / Northern Kentucky International Airport

Covington, Kentucky, USA
METAR KCVG 241252Z 11006KT 10SM FEW250 20/14 A3022 RMK AO2 SLP225 T02000144
Observed Flight Rules
May-24 @ 12:52 UTC (58 minutes ago) Visual Flight Rules
Wind Visibility Clouds
110° at 6 knots 10 miles
  • Few at 25,000' AGL
Temperatures Readings
Current 20°C / 68°F
Dewpoint 14°C / 57°F
Humidity 69%
Altimeter 30.22" Hg
Pressure 1022.5 hPa
Elevation 269
METAR KCVG 241252Z 11006KT 10SM FEW250 20/14 A3022 RMK AO2 SLP225 T02000144
Observed Flight Rules
May-24 @ 12:52 UTC
(58 minutes ago)
VFR
Wind Visibility
110° at 6 knots 10 miles
Clouds
  • Few at 25,000' AGL
Temperature Dewpoint
20°C / 68°F 14°C / 57°F
Humidity Altimeter Pressure
69% 30.22" Hg 1022.5 hPa